createdAt,value
2022-10-13T08:38:55.643Z,101289.73
2022-10-13T08:42:23.933Z,101291.70
2022-10-13T08:45:52.759Z,101295.08
2022-10-13T08:49:20.120Z,101292.41
2022-10-13T08:52:55.180Z,101288.09
2022-10-13T08:56:25.793Z,101293.96
2022-10-13T08:59:53.987Z,101289.18
2022-10-13T09:03:25.967Z,101294.35
2022-10-13T09:06:57.976Z,101293.42
2022-10-13T09:10:24.751Z,101290.13
2022-10-13T09:13:58.198Z,101285.09
2022-10-13T09:17:27.714Z,101280.27
2022-10-13T09:21:10.166Z,101280.98
2022-10-13T09:24:37.196Z,101285.92
2022-10-13T09:28:10.434Z,101283.31
2022-10-13T09:31:38.762Z,101278.81
2022-10-13T09:35:24.360Z,101278.10
2022-10-13T09:39:09.526Z,101282.09
2022-10-13T09:42:39.000Z,101279.59
2022-10-13T09:46:20.656Z,101272.08
2022-10-13T09:49:48.462Z,101266.84
2022-10-13T09:53:25.348Z,101266.60
2022-10-13T09:57:00.908Z,101268.48
2022-10-13T10:00:30.418Z,101264.79
2022-10-13T10:03:58.838Z,101260.67
2022-10-13T10:07:31.598Z,101251.32
2022-10-13T10:11:01.922Z,101245.05
2022-10-13T10:14:30.522Z,101245.98
2022-10-13T10:18:00.187Z,101237.09
2022-10-13T10:21:36.567Z,101237.15
2022-10-13T10:25:18.249Z,101234.98
2022-10-13T10:29:13.065Z,101227.59
2022-10-13T10:32:51.340Z,101220.77
2022-10-13T10:36:24.225Z,101213.31
2022-10-13T10:40:01.663Z,101209.77
2022-10-13T10:43:48.645Z,101203.95
2022-10-13T10:47:34.902Z,101195.53
2022-10-13T10:51:11.001Z,101191.08
2022-10-13T10:54:49.557Z,101187.48
2022-10-13T10:58:29.236Z,101181.27
2022-10-13T11:02:05.036Z,101181.80
2022-10-13T11:06:05.083Z,101167.98
2022-10-13T11:10:17.960Z,101159.80
2022-10-13T11:13:56.850Z,101156.75
2022-10-13T11:17:31.292Z,101154.57
2022-10-13T11:21:03.420Z,101145.06
2022-10-13T11:24:50.618Z,101144.25
2022-10-13T11:28:44.585Z,101135.36
2022-10-13T11:32:55.645Z,101127.91
2022-10-13T11:36:55.069Z,101128.73
2022-10-13T11:40:30.206Z,101126.00
2022-10-13T11:44:03.666Z,101119.16
2022-10-13T11:47:56.733Z,101113.36
2022-10-13T11:51:33.249Z,101111.30
2022-10-13T11:55:08.510Z,101108.17
2022-10-13T11:58:43.432Z,101102.84
2022-10-13T12:02:19.137Z,101100.34
2022-10-13T12:05:49.189Z,101102.95
2022-10-13T12:09:21.548Z,101096.02
2022-10-13T12:12:55.187Z,101097.27
2022-10-13T12:16:24.971Z,101094.79
2022-10-13T12:19:52.063Z,101088.16
2022-10-13T12:23:20.423Z,101085.97
2022-10-13T12:26:47.165Z,101078.59
2022-10-13T12:30:25.508Z,101073.35
2022-10-13T12:33:58.073Z,101067.75
2022-10-13T12:37:31.195Z,101064.64
2022-10-13T12:40:56.307Z,101062.77
2022-10-13T12:44:26.336Z,101068.27
2022-10-13T12:47:54.743Z,101067.38
2022-10-13T12:51:26.033Z,101066.64
2022-10-13T12:54:56.194Z,101062.92
2022-10-13T12:58:27.230Z,101059.83
2022-10-13T13:02:00.108Z,101063.34
2022-10-13T13:05:37.563Z,101059.54
2022-10-13T13:09:22.077Z,101055.52
2022-10-13T13:12:50.356Z,101051.20
2022-10-13T13:16:20.437Z,101052.81
2022-10-13T13:19:50.352Z,101052.55
2022-10-13T13:23:19.242Z,101049.65
2022-10-13T13:26:48.962Z,101042.75
2022-10-13T13:30:19.536Z,101034.19
2022-10-13T13:33:47.859Z,101026.66
2022-10-13T13:37:24.764Z,101034.27
2022-10-13T13:40:51.349Z,101033.97
2022-10-13T13:44:18.223Z,101036.05
2022-10-13T13:47:52.219Z,101035.36
2022-10-13T13:51:19.684Z,101028.29
2022-10-13T13:54:50.858Z,101022.63
2022-10-13T13:58:19.588Z,101022.59
2022-10-13T14:01:45.800Z,101023.23
2022-10-13T14:05:15.847Z,101016.52
2022-10-13T14:08:47.693Z,101012.04
2022-10-13T14:12:13.996Z,101013.90
2022-10-13T14:15:40.848Z,101012.17
2022-10-13T14:19:07.759Z,101009.60
2022-10-13T14:22:38.744Z,101011.58
2022-10-13T14:26:13.174Z,101014.10
2022-10-13T14:29:40.363Z,101012.95
2022-10-13T14:33:08.814Z,101003.98
2022-10-13T14:36:36.876Z,100995.42
2022-10-13T14:40:08.508Z,100988.52
2022-10-13T14:43:35.872Z,100987.41
2022-10-13T14:47:03.013Z,100987.05
2022-10-13T14:50:30.778Z,100988.64
2022-10-13T14:53:57.464Z,100979.60
2022-10-13T14:57:32.121Z,100974.23
2022-10-13T15:00:58.450Z,100973.91
2022-10-13T15:04:26.266Z,100978.80
2022-10-13T15:07:52.748Z,100971.53
2022-10-13T15:11:21.781Z,100973.68
2022-10-13T15:14:48.416Z,100972.73
2022-10-13T15:18:15.600Z,100973.63
2022-10-13T15:21:43.113Z,100971.25
2022-10-13T15:25:12.055Z,100970.36
2022-10-13T15:28:44.124Z,100967.30
2022-10-13T15:32:16.097Z,100968.64
2022-10-13T15:35:43.514Z,100967.50
2022-10-13T15:39:12.791Z,100966.44
2022-10-13T15:42:39.992Z,100971.45
2022-10-13T15:46:09.691Z,100967.02
2022-10-13T15:49:39.028Z,100957.95
2022-10-13T15:53:05.876Z,100962.66
2022-10-13T15:56:33.140Z,100965.45
2022-10-13T16:00:00.428Z,100969.23
2022-10-13T16:03:30.344Z,100966.54
2022-10-13T16:06:57.815Z,100964.29
2022-10-13T16:10:24.511Z,100963.66
2022-10-13T16:13:53.737Z,100961.13
2022-10-13T16:17:20.993Z,100956.48
2022-10-13T16:20:50.371Z,100958.31
2022-10-13T16:24:17.270Z,100957.73
2022-10-13T16:27:44.782Z,100961.88
2022-10-13T16:31:14.722Z,100957.27
2022-10-13T16:34:43.520Z,100954.20
2022-10-13T16:38:11.284Z,100955.17
2022-10-13T16:41:39.141Z,100951.95
2022-10-13T16:45:07.439Z,100954.31
2022-10-13T16:48:38.833Z,100948.96
2022-10-13T16:52:05.345Z,100947.14
2022-10-13T16:55:34.953Z,100946.52
2022-10-13T16:59:03.631Z,100946.95
2022-10-13T17:02:32.908Z,100954.44
2022-10-13T17:06:01.777Z,100954.22
2022-10-13T17:09:28.852Z,100956.98
2022-10-13T17:12:58.453Z,100955.85
2022-10-13T17:16:26.094Z,100953.84
2022-10-13T17:19:53.277Z,100945.25
2022-10-13T17:23:35.976Z,100942.13
2022-10-13T17:27:02.911Z,100939.04
2022-10-13T17:30:32.743Z,100932.80
2022-10-13T17:34:00.867Z,100925.73
2022-10-13T17:37:27.964Z,100928.64
2022-10-13T17:40:59.611Z,100928.58
2022-10-13T17:44:29.900Z,100920.96
2022-10-13T17:47:58.832Z,100928.91
2022-10-13T17:51:28.819Z,100929.92
2022-10-13T17:54:58.230Z,100926.39
2022-10-13T17:58:27.946Z,100926.29
2022-10-13T18:01:55.886Z,100924.92
2022-10-13T18:05:23.019Z,100926.50
2022-10-13T18:08:51.615Z,100926.61
2022-10-13T18:12:18.530Z,100918.62
2022-10-13T18:15:45.424Z,100912.02
2022-10-13T18:19:13.088Z,100907.95
2022-10-13T18:22:44.542Z,100910.69
2022-10-13T18:26:13.298Z,100911.14
2022-10-13T18:29:40.488Z,100909.24
2022-10-13T18:33:08.425Z,100907.83
2022-10-13T18:36:37.594Z,100907.94
2022-10-13T18:40:12.816Z,100908.48
2022-10-13T18:43:40.448Z,100901.48
2022-10-13T18:47:07.963Z,100900.79
2022-10-13T18:50:40.057Z,100902.38
2022-10-13T18:54:06.927Z,100900.11
2022-10-13T18:57:33.710Z,100898.69
2022-10-13T19:01:06.235Z,100892.18
2022-10-13T19:04:33.214Z,100893.27
2022-10-13T19:08:00.202Z,100891.59
2022-10-13T19:11:28.275Z,100892.90
2022-10-13T19:14:54.816Z,100893.48
2022-10-13T19:18:21.355Z,100891.95
2022-10-13T19:21:48.203Z,100893.62
2022-10-13T19:25:15.407Z,100896.15
2022-10-13T19:28:48.135Z,100892.91
2022-10-13T19:32:16.775Z,100892.64
2022-10-13T19:35:47.794Z,100888.95
2022-10-13T19:39:17.106Z,100889.09
2022-10-13T19:42:43.817Z,100885.70
2022-10-13T19:46:11.181Z,100878.32
2022-10-13T19:49:37.948Z,100877.33
2022-10-13T19:53:05.048Z,100876.20
2022-10-13T19:56:34.132Z,100881.54
2022-10-13T20:00:00.696Z,100883.27
2022-10-13T20:03:28.369Z,100885.41
2022-10-13T20:06:58.182Z,100881.98
2022-10-13T20:10:24.847Z,100883.52
2022-10-13T20:13:54.867Z,100883.80
2022-10-13T20:17:21.791Z,100885.90
2022-10-13T20:20:48.824Z,100883.66
2022-10-13T20:24:16.126Z,100877.31
2022-10-13T20:27:45.911Z,100877.20
2022-10-13T20:31:14.490Z,100871.30
2022-10-13T20:34:41.877Z,100875.41
2022-10-13T20:38:09.295Z,100878.52
2022-10-13T20:41:40.114Z,100878.05
2022-10-13T20:45:12.951Z,100873.80
2022-10-13T20:49:08.744Z,100874.41
2022-10-13T20:52:28.926Z,100872.77
2022-10-13T20:56:00.214Z,100866.11
2022-10-13T20:59:27.178Z,100862.50
2022-10-13T21:02:57.778Z,100865.42
2022-10-13T21:06:31.437Z,100864.36
2022-10-13T21:10:05.864Z,100858.89
2022-10-13T21:13:33.212Z,100853.36
2022-10-13T21:17:03.454Z,100850.72
2022-10-13T21:20:31.863Z,100848.27
2022-10-13T21:24:01.442Z,100848.38
2022-10-13T21:27:29.364Z,100840.37
2022-10-13T21:31:05.155Z,100844.45
2022-10-13T21:34:32.948Z,100849.07
2022-10-13T21:38:01.437Z,100848.49
2022-10-13T21:41:32.176Z,100846.31
2022-10-13T21:45:13.153Z,100846.36
2022-10-13T21:48:40.336Z,100841.20
2022-10-13T21:52:11.482Z,100840.90
2022-10-13T21:55:38.920Z,100843.55
2022-10-13T21:59:07.044Z,100839.73
2022-10-13T22:02:37.843Z,100835.16
2022-10-13T22:06:13.256Z,100831.91
2022-10-13T22:09:46.188Z,100831.13
2022-10-13T22:13:12.697Z,100827.63
2022-10-13T22:16:43.989Z,100828.30
2022-10-13T22:20:12.010Z,100820.81
2022-10-13T22:23:43.871Z,100825.48
2022-10-13T22:27:10.271Z,100824.28
2022-10-13T22:30:41.745Z,100821.27
2022-10-13T22:34:15.416Z,100819.88
2022-10-13T22:37:45.473Z,100818.34
2022-10-13T22:41:15.004Z,100814.42
2022-10-13T22:44:41.951Z,100818.73
2022-10-13T22:48:14.703Z,100812.89
2022-10-13T22:51:42.113Z,100808.77
2022-10-13T22:55:19.853Z,100806.24
2022-10-13T22:58:50.186Z,100804.65
2022-10-13T23:02:18.462Z,100803.34
2022-10-13T23:05:50.217Z,100802.05
2022-10-13T23:09:19.742Z,100801.56
2022-10-13T23:12:46.527Z,100803.91
2022-10-13T23:16:15.204Z,100803.98
2022-10-13T23:19:44.677Z,100801.73
2022-10-13T23:23:12.133Z,100799.27
2022-10-13T23:26:39.093Z,100799.31
2022-10-13T23:30:06.724Z,100799.27
2022-10-13T23:33:33.349Z,100797.42
2022-10-13T23:37:00.618Z,100794.77
2022-10-13T23:40:27.315Z,100793.52
2022-10-13T23:43:54.465Z,100789.05
2022-10-13T23:47:21.364Z,100784.25
2022-10-13T23:50:52.517Z,100780.62
2022-10-13T23:54:19.193Z,100776.77
2022-10-13T23:57:46.185Z,100773.09
